• Join FlightAware (Why Join?)
  • Login
  • US Flag 
04:48PM EST


 

Airport Tracker/Info


-or-


 

Live Flight TrackerFlight Track Log ✈ BEE2221 ✈ 09-Sep-2013 ✈ EFHK / HEL - EFTU / TKU

Flight Track Log - Related Links

Times and Time Zones

All times are in EDT time to prevent confusion due to time zone crossing. See the BEE2221 flight status page for this flight to view local times or setup timezone preferences in your user account.

Time Position Orientation Groundspeed Altitude Reporting Facility
EDT Latitude Longitude Course Direction KTS MPH feet Rate Location/Type
03:41AM 60.3609 24.4271 280° West  Level Estimated
03:42AM 60.3749 24.2481 279° West  Level Estimated
03:43AM 60.3888 24.0689 279° West  Level Estimated
03:44AM 60.4024 23.8895 279° West  Level Estimated
03:45AM 60.4157 23.7100 279° West  Level Estimated
03:46AM 60.4288 23.5304 278° West  Level Estimated
03:47AM 60.4417 23.3506 278° West  Level Estimated
03:48AM 60.4543 23.1707 278° West  Level Estimated
03:49AM 60.4667 22.9906 278° West  Level Estimated
03:50AM 60.4788 22.8104 278° West  Level Estimated
03:51AM 60.4907 22.6300 278° West  Level Estimated
03:52AM 60.5023 22.4496 278° West  Level Estimated
03:53AM 60.5138 22.2690 277° West  Level Estimated
03:54AM 60.5141 22.2628 277° West  Level Estimated
03:55AM 60.5141 22.2628 334° Northwest  Level Estimated
03:56AM 60.5141 22.2628 334° Northwest  Level Estimated
03:57AM 60.5141 22.2628 334° Northwest  Level Estimated
03:58AM 60.5141 22.2628 334° Northwest  Level Estimated
03:59AM 60.5141 22.2628 334° Northwest  Level Estimated
04:00AM 60.5141 22.2628 334° Northwest  Level Estimated
04:01AM 60.5141 22.2628 334° Northwest  Level Estimated
04:02AM 60.5141 22.2628 334° Northwest  Level Estimated
04:03AM 60.5141 22.2628 334° Northwest  Level Estimated
04:04AM 60.5141 22.2628 334° Northwest  Level Estimated
04:05AM 60.5141 22.2628 334° Northwest  Level Estimated
04:06AM 60.5141 22.2628 334° Northwest  Level Estimated
04:07AM 60.5141 22.2628 334° Northwest  Level Estimated